Luena, Luena Airport (FNUE)

NameLuena Airport
CityLuena
CountryAngola
ICAOFNUE
IATALUO
Altitude1329 m
CoordinatesGoogle Map
Live Air TrafficLiveATC.net
METARFNUE 131300Z 31005KT 9999 SCT040 27/20 Q1018
2019-01-13 13:00:00 Wind: West-Northwest (310°) 2.57 m/s - Visibility: > 10000 m - Temperature: 27 °C - Dew point: 20 °C - Humidity: 65.6% - Pressure: 1018 hPa
Statistics

The table below shows the detailed information of all flights to/from Luena, Luena Airport (FNUE).